createdAt,value
2017-10-14T00:00:26.369Z,0
2017-10-14T00:01:26.642Z,0
2017-10-14T00:02:26.960Z,0
2017-10-14T00:03:26.613Z,0
2017-10-14T00:04:26.267Z,0
2017-10-14T00:05:26.262Z,0
2017-10-14T00:06:26.572Z,0
2017-10-14T00:07:26.232Z,0
2017-10-14T00:08:25.880Z,0
2017-10-14T00:09:26.537Z,0
2017-10-14T00:10:25.848Z,0
2017-10-14T00:11:26.841Z,0
2017-10-14T00:12:26.168Z,0
2017-10-14T00:13:26.149Z,0
2017-10-14T00:14:25.811Z,0
2017-10-14T00:15:25.463Z,0
2017-10-14T00:16:26.117Z,0
2017-10-14T00:17:26.456Z,0
2017-10-14T00:18:26.430Z,0
2017-10-14T00:19:26.420Z,0
2017-10-14T00:20:26.059Z,0
2017-10-14T00:21:26.054Z,0
2017-10-14T00:22:26.375Z,0
2017-10-14T00:23:26.025Z,0
2017-10-14T00:24:25.904Z,0
2017-10-14T00:25:26.007Z,0
2017-10-14T00:26:25.329Z,0
2017-10-14T00:27:26.651Z,0
2017-10-14T00:28:25.964Z,0
2017-10-14T00:29:25.628Z,0
2017-10-14T00:30:25.654Z,0
2017-10-14T00:31:26.275Z,0
2017-10-14T00:32:25.916Z,0
2017-10-14T00:33:25.906Z,0
2017-10-14T00:34:25.560Z,0
2017-10-14T00:35:26.552Z,0
2017-10-14T00:36:25.869Z,0
2017-10-14T00:37:26.194Z,0
2017-10-14T00:38:25.841Z,0
2017-10-14T00:39:25.487Z,0
2017-10-14T00:40:26.150Z,0
2017-10-14T00:41:25.798Z,0
2017-10-14T00:42:25.785Z,0
2017-10-14T00:43:26.463Z,0
2017-10-14T00:44:25.773Z,0
2017-10-14T00:45:26.106Z,0
2017-10-14T00:46:25.744Z,0
2017-10-14T00:47:25.727Z,0
2017-10-14T00:48:25.714Z,0
2017-10-14T00:49:25.369Z,0
2017-10-14T00:50:25.745Z,0
2017-10-14T00:51:25.672Z,0
2017-10-14T00:52:25.666Z,0
2017-10-14T00:53:25.664Z,0
2017-10-14T00:54:25.972Z,0
2017-10-14T00:55:25.338Z,0
2017-10-14T00:56:25.945Z,0
2017-10-14T00:57:25.608Z,0
2017-10-14T00:58:25.928Z,0
2017-10-14T00:59:25.593Z,0
2017-10-14T01:00:25.282Z,0
2017-10-14T01:01:25.221Z,0
2017-10-14T01:02:25.882Z,0
2017-10-14T01:03:25.197Z,0
2017-10-14T01:04:24.847Z,0
2017-10-14T01:05:25.833Z,0
2017-10-14T01:06:25.494Z,0
2017-10-14T01:07:25.829Z,0
2017-10-14T01:08:25.467Z,0
2017-10-14T01:09:26.121Z,0
2017-10-14T01:10:25.445Z,0
2017-10-14T01:11:24.758Z,0
2017-10-14T01:12:24.744Z,0
2017-10-14T01:13:25.091Z,0
2017-10-14T01:14:25.396Z,0
2017-10-14T01:15:25.720Z,0
2017-10-14T01:16:25.706Z,0
2017-10-14T01:17:25.692Z,0
2017-10-14T01:18:25.342Z,0
2017-10-14T01:19:25.327Z,0
2017-10-14T01:20:25.984Z,0
2017-10-14T01:21:25.351Z,0
2017-10-14T01:22:25.635Z,0
2017-10-14T01:23:25.963Z,0
2017-10-14T01:24:25.267Z,0
2017-10-14T01:25:25.928Z,0
2017-10-14T01:26:25.577Z,0
2017-10-14T01:27:25.556Z,0
2017-10-14T01:28:25.888Z,0
2017-10-14T01:29:25.201Z,0
2017-10-14T01:30:24.525Z,0
2017-10-14T01:31:25.181Z,0
2017-10-14T01:32:24.839Z,0
2017-10-14T01:33:25.146Z,0
2017-10-14T01:34:25.487Z,0
2017-10-14T01:35:24.790Z,0
2017-10-14T01:36:25.459Z,0
2017-10-14T01:37:24.769Z,0
2017-10-14T01:38:25.427Z,0
2017-10-14T01:39:25.076Z,0
2017-10-14T01:40:24.730Z,0
2017-10-14T01:41:24.713Z,0
2017-10-14T01:42:25.384Z,0
2017-10-14T01:43:25.710Z,0
2017-10-14T01:44:25.682Z,0
2017-10-14T01:45:25.002Z,0
2017-10-14T01:46:24.991Z,0
2017-10-14T01:47:25.319Z,0
2017-10-14T01:48:25.315Z,0
2017-10-14T01:49:25.618Z,0
2017-10-14T01:50:25.281Z,0
2017-10-14T01:51:25.597Z,0
2017-10-14T01:52:24.915Z,0
2017-10-14T01:53:25.597Z,0
2017-10-14T01:54:24.557Z,0
2017-10-14T01:55:25.207Z,0
2017-10-14T01:56:24.865Z,0
2017-10-14T01:57:24.852Z,0
2017-10-14T01:58:24.510Z,0
2017-10-14T01:59:24.823Z,0
2017-10-14T02:00:25.486Z,0
2017-10-14T02:01:24.801Z,0
2017-10-14T02:02:24.129Z,0
2017-10-14T02:03:25.468Z,0
2017-10-14T02:04:25.104Z,0
2017-10-14T02:05:25.428Z,0
2017-10-14T02:06:24.414Z,0
2017-10-14T02:07:25.056Z,0
2017-10-14T02:08:24.381Z,0
2017-10-14T02:09:24.700Z,0
2017-10-14T02:10:25.042Z,0
2017-10-14T02:11:25.006Z,0
2017-10-14T02:12:24.660Z,0
2017-10-14T02:13:24.978Z,0
2017-10-14T02:14:24.310Z,0
2017-10-14T02:15:24.629Z,0
2017-10-14T02:16:24.619Z,0
2017-10-14T02:17:25.284Z,0
2017-10-14T02:18:24.250Z,0
2017-10-14T02:19:24.246Z,0
2017-10-14T02:20:24.569Z,0
2017-10-14T02:21:24.552Z,0
2017-10-14T02:22:24.875Z,0
2017-10-14T02:23:24.862Z,0
2017-10-14T02:24:25.073Z,0
2017-10-14T02:25:24.502Z,0
2017-10-14T02:26:25.157Z,0
2017-10-14T02:27:24.481Z,0
2017-10-14T02:28:24.467Z,0
2017-10-14T02:29:24.777Z,0
2017-10-14T02:30:24.768Z,0
2017-10-14T02:31:24.445Z,0
2017-10-14T02:32:24.465Z,0
2017-10-14T02:33:24.414Z,0
2017-10-14T02:34:24.732Z,0
2017-10-14T02:35:24.380Z,0
2017-10-14T02:36:24.370Z,0
2017-10-14T02:37:25.030Z,0
2017-10-14T02:38:24.679Z,0
2017-10-14T02:39:24.663Z,0
2017-10-14T02:40:24.985Z,0
2017-10-14T02:41:24.297Z,0
2017-10-14T02:42:24.286Z,0
2017-10-14T02:43:24.611Z,0
2017-10-14T02:44:23.930Z,0
2017-10-14T02:45:24.258Z,0
2017-10-14T02:46:24.238Z,0
2017-10-14T02:47:24.571Z,0
2017-10-14T02:48:24.221Z,0
2017-10-14T02:49:24.878Z,0
2017-10-14T02:50:23.855Z,0
2017-10-14T02:51:23.843Z,0
2017-10-14T02:52:24.160Z,0
2017-10-14T02:53:24.491Z,0
2017-10-14T02:54:24.153Z,0
2017-10-14T02:55:24.815Z,0
2017-10-14T02:56:23.786Z,0
2017-10-14T02:57:23.476Z,0
2017-10-14T02:58:24.410Z,0
2017-10-14T02:59:23.740Z,0
2017-10-14T03:00:24.391Z,0
2017-10-14T03:01:24.056Z,0
2017-10-14T03:02:24.035Z,0
2017-10-14T03:03:24.019Z,0
2017-10-14T03:04:24.001Z,0
2017-10-14T03:05:24.010Z,0
2017-10-14T03:06:23.644Z,0
2017-10-14T03:07:23.976Z,0
2017-10-14T03:08:23.963Z,0
2017-10-14T03:09:23.273Z,0
2017-10-14T03:10:23.935Z,0
2017-10-14T03:11:23.934Z,0
2017-10-14T03:12:24.623Z,0
2017-10-14T03:13:23.893Z,0
2017-10-14T03:14:23.880Z,0
2017-10-14T03:15:24.558Z,0
2017-10-14T03:16:23.861Z,0
2017-10-14T03:17:24.499Z,0
2017-10-14T03:18:23.821Z,0
2017-10-14T03:19:24.146Z,0
2017-10-14T03:20:23.798Z,0
2017-10-14T03:21:24.125Z,0
2017-10-14T03:22:24.442Z,0
2017-10-14T03:23:24.095Z,0
2017-10-14T03:24:24.091Z,0
2017-10-14T03:25:23.738Z,0
2017-10-14T03:26:24.050Z,0
2017-10-14T03:27:24.062Z,0
2017-10-14T03:28:23.701Z,0
2017-10-14T03:29:23.349Z,0
2017-10-14T03:30:24.011Z,0
2017-10-14T03:31:23.663Z,0
2017-10-14T03:32:24.016Z,0
2017-10-14T03:33:24.361Z,0
2017-10-14T03:34:23.946Z,0
2017-10-14T03:35:23.937Z,0
2017-10-14T03:36:23.593Z,0
2017-10-14T03:37:22.917Z,0
2017-10-14T03:38:23.563Z,0
2017-10-14T03:39:23.219Z,0
2017-10-14T03:40:23.870Z,0
2017-10-14T03:41:23.858Z,0
2017-10-14T03:42:23.565Z,0
2017-10-14T03:43:23.167Z,0
2017-10-14T03:44:23.153Z,0
2017-10-14T03:45:23.814Z,0
2017-10-14T03:46:23.466Z,0
2017-10-14T03:47:23.784Z,0
2017-10-14T03:48:23.435Z,0
2017-10-14T03:49:24.096Z,0
2017-10-14T03:50:23.410Z,0
2017-10-14T03:51:23.400Z,0
2017-10-14T03:52:22.713Z,0
2017-10-14T03:53:23.715Z,0
2017-10-14T03:54:23.691Z,0
2017-10-14T03:55:23.348Z,0
2017-10-14T03:56:23.692Z,0
2017-10-14T03:57:23.319Z,0
2017-10-14T03:58:23.354Z,0
2017-10-14T03:59:23.292Z,0
2017-10-14T04:00:23.622Z,0
2017-10-14T04:01:23.935Z,0
2017-10-14T04:02:23.245Z,0
2017-10-14T04:03:23.909Z,0
2017-10-14T04:04:22.922Z,0
2017-10-14T04:05:23.553Z,0
2017-10-14T04:06:23.882Z,0
2017-10-14T04:07:23.864Z,0
2017-10-14T04:08:22.838Z,0
2017-10-14T04:09:23.494Z,0
2017-10-14T04:10:22.480Z,0
2017-10-14T04:11:23.526Z,0
2017-10-14T04:12:22.792Z,0
2017-10-14T04:13:23.158Z,0
2017-10-14T04:14:23.793Z,0
2017-10-14T04:15:23.416Z,0
2017-10-14T04:16:23.069Z,0
2017-10-14T04:17:22.732Z,0
2017-10-14T04:18:23.044Z,0
2017-10-14T04:19:23.041Z,0
2017-10-14T04:20:23.015Z,0
2017-10-14T04:21:23.014Z,0
2017-10-14T04:22:22.654Z,0
2017-10-14T04:23:22.985Z,0
2017-10-14T04:24:23.509Z,0
2017-10-14T04:25:22.957Z,0
2017-10-14T04:26:23.623Z,0
2017-10-14T04:27:22.595Z,0
2017-10-14T04:28:22.916Z,0
2017-10-14T04:29:22.954Z,0
2017-10-14T04:30:22.556Z,0
2017-10-14T04:31:22.871Z,0
2017-10-14T04:32:22.865Z,0
2017-10-14T04:33:22.845Z,0
2017-10-14T04:34:22.831Z,0
2017-10-14T04:35:23.155Z,0
2017-10-14T04:36:23.486Z,0
2017-10-14T04:37:22.461Z,0
2017-10-14T04:38:23.119Z,0
2017-10-14T04:39:23.102Z,0
2017-10-14T04:40:22.424Z,0
2017-10-14T04:41:23.080Z,0
2017-10-14T04:42:23.081Z,0
2017-10-14T04:43:22.381Z,0
2017-10-14T04:44:23.401Z,0
2017-10-14T04:45:22.714Z,0
2017-10-14T04:46:23.015Z,0
2017-10-14T04:47:22.332Z,0
2017-10-14T04:48:22.668Z,0
2017-10-14T04:49:22.975Z,0
2017-10-14T04:50:22.638Z,0
2017-10-14T04:51:22.943Z,0
2017-10-14T04:52:22.607Z,0
2017-10-14T04:53:23.248Z,0
2017-10-14T04:54:22.984Z,0
2017-10-14T04:55:22.897Z,0
2017-10-14T04:56:22.551Z,0
2017-10-14T04:57:21.875Z,0
2017-10-14T04:58:22.528Z,0
2017-10-14T04:59:23.172Z,0
2017-10-14T05:00:22.498Z,0
2017-10-14T05:01:22.822Z,0
2017-10-14T05:02:22.467Z,0
2017-10-14T05:03:22.453Z,0
2017-10-14T05:04:22.117Z,0
2017-10-14T05:05:22.431Z,0
2017-10-14T05:06:23.108Z,0
2017-10-14T05:07:22.396Z,0
2017-10-14T05:08:22.384Z,0
2017-10-14T05:09:22.770Z,0
2017-10-14T05:10:22.361Z,0
2017-10-14T05:11:22.013Z,0
2017-10-14T05:12:23.023Z,0
2017-10-14T05:13:21.997Z,0
2017-10-14T05:14:22.323Z,0
2017-10-14T05:15:21.960Z,0
2017-10-14T05:16:22.947Z,0
2017-10-14T05:17:22.596Z,0
2017-10-14T05:18:22.590Z,0
2017-10-14T05:19:22.242Z,0
2017-10-14T05:20:22.227Z,0
2017-10-14T05:21:22.214Z,0
2017-10-14T05:22:22.554Z,0
2017-10-14T05:23:21.855Z,0
2017-10-14T05:24:22.170Z,0
2017-10-14T05:25:21.831Z,0
2017-10-14T05:26:22.147Z,0
2017-10-14T05:27:22.472Z,0
2017-10-14T05:28:22.456Z,0
2017-10-14T05:29:21.780Z,0
2017-10-14T05:30:22.430Z,0
2017-10-14T05:31:21.412Z,0
2017-10-14T05:32:22.063Z,0
2017-10-14T05:33:22.386Z,0
2017-10-14T05:34:22.049Z,0
2017-10-14T05:35:22.076Z,0
2017-10-14T05:36:22.022Z,0
2017-10-14T05:37:21.671Z,0
2017-10-14T05:38:21.990Z,0
2017-10-14T05:39:22.308Z,0
2017-10-14T05:40:22.305Z,0
2017-10-14T05:41:22.290Z,0
2017-10-14T05:42:21.598Z,0
2017-10-14T05:43:21.917Z,0
2017-10-14T05:44:22.239Z,0
2017-10-14T05:45:21.921Z,0
2017-10-14T05:46:21.554Z,0
2017-10-14T05:47:21.535Z,0
2017-10-14T05:48:21.518Z,0
2017-10-14T05:49:22.179Z,0
2017-10-14T05:50:22.164Z,0
2017-10-14T05:51:21.498Z,0
2017-10-14T05:52:21.797Z,0
2017-10-14T05:53:21.802Z,0
2017-10-14T05:54:22.111Z,5
2017-10-14T05:55:22.103Z,5
2017-10-14T05:56:21.412Z,5
2017-10-14T05:57:21.735Z,5
2017-10-14T05:58:21.725Z,5
2017-10-14T05:59:21.378Z,5
2017-10-14T06:00:21.692Z,5
2017-10-14T06:01:21.684Z,5
2017-10-14T06:02:22.351Z,5
2017-10-14T06:03:20.987Z,5
2017-10-14T06:04:22.324Z,10
2017-10-14T06:05:21.647Z,10
2017-10-14T06:06:21.629Z,10
2017-10-14T06:07:21.269Z,10
2017-10-14T06:08:21.252Z,10
2017-10-14T06:09:21.904Z,10
2017-10-14T06:10:21.893Z,10
2017-10-14T06:11:21.546Z,10
2017-10-14T06:12:21.865Z,15
2017-10-14T06:13:21.193Z,15
2017-10-14T06:14:21.509Z,15
2017-10-14T06:15:21.824Z,15
2017-10-14T06:16:21.492Z,15
2017-10-14T06:17:21.124Z,15
2017-10-14T06:18:21.461Z,15
2017-10-14T06:19:21.099Z,20
2017-10-14T06:20:21.761Z,20
2017-10-14T06:21:21.414Z,20
2017-10-14T06:22:21.087Z,20
2017-10-14T06:23:21.720Z,20
2017-10-14T06:24:21.575Z,20
2017-10-14T06:25:21.696Z,20
2017-10-14T06:26:21.686Z,20
2017-10-14T06:27:21.678Z,25
2017-10-14T06:28:21.701Z,25
2017-10-14T06:29:21.312Z,25
2017-10-14T06:30:21.335Z,25
2017-10-14T06:31:21.320Z,25
2017-10-14T06:32:21.272Z,25
2017-10-14T06:33:21.592Z,25
2017-10-14T06:34:20.905Z,25
2017-10-14T06:35:20.886Z,30
2017-10-14T06:36:21.956Z,30
2017-10-14T06:37:21.860Z,30
2017-10-14T06:38:21.523Z,30
2017-10-14T06:39:20.827Z,30
2017-10-14T06:40:20.833Z,30
2017-10-14T06:41:21.144Z,30
2017-10-14T06:42:21.468Z,30
2017-10-14T06:43:21.451Z,30
2017-10-14T06:44:21.111Z,35
2017-10-14T06:45:20.759Z,35
2017-10-14T06:46:21.107Z,35
2017-10-14T06:47:21.083Z,35
2017-10-14T06:48:21.719Z,35
2017-10-14T06:49:21.715Z,35
2017-10-14T06:50:20.687Z,35
2017-10-14T06:51:21.347Z,35
2017-10-14T06:52:20.999Z,35
2017-10-14T06:53:20.308Z,40
2017-10-14T06:54:20.978Z,40
2017-10-14T06:55:20.957Z,40
2017-10-14T06:56:21.611Z,40
2017-10-14T06:57:20.595Z,40
2017-10-14T06:58:20.918Z,40
2017-10-14T06:59:20.899Z,40
2017-10-14T07:00:21.234Z,40
2017-10-14T07:01:21.555Z,40
2017-10-14T07:02:21.201Z,40
2017-10-14T07:03:20.513Z,45
2017-10-14T07:04:20.839Z,45
2017-10-14T07:05:21.153Z,45
2017-10-14T07:06:21.168Z,45
2017-10-14T07:07:20.803Z,45
2017-10-14T07:08:21.485Z,45
2017-10-14T07:09:20.780Z,45
2017-10-14T07:10:21.446Z,45
2017-10-14T07:11:20.756Z,45
2017-10-14T07:12:21.137Z,45
2017-10-14T07:13:20.724Z,45
2017-10-14T07:14:21.053Z,50
2017-10-14T07:15:20.694Z,50
2017-10-14T07:16:20.689Z,50
2017-10-14T07:17:20.998Z,50
2017-10-14T07:18:20.985Z,50
2017-10-14T07:19:52.396Z,50
2017-10-14T07:20:20.972Z,50
2017-10-14T07:21:20.624Z,50
2017-10-14T07:22:20.617Z,50
2017-10-14T07:23:20.599Z,50
2017-10-14T07:24:20.590Z,50
2017-10-14T07:25:20.228Z,50
2017-10-14T07:26:20.561Z,55
2017-10-14T07:27:20.875Z,55
2017-10-14T07:28:20.189Z,55
2017-10-14T07:29:20.844Z,55
2017-10-14T07:30:20.503Z,55
2017-10-14T07:31:20.828Z,55
2017-10-14T07:32:20.809Z,55
2017-10-14T07:33:20.456Z,55
2017-10-14T07:34:20.456Z,55
2017-10-14T07:35:20.439Z,55
2017-10-14T07:36:21.100Z,55
2017-10-14T07:37:20.411Z,55
2017-10-14T07:38:20.749Z,55
2017-10-14T07:39:20.050Z,55
2017-10-14T07:40:20.037Z,60
2017-10-14T07:41:20.359Z,60
2017-10-14T07:42:20.692Z,60
2017-10-14T07:43:20.001Z,60
2017-10-14T07:44:19.998Z,60
2017-10-14T07:45:20.638Z,60
2017-10-14T07:46:20.627Z,60
2017-10-14T07:47:20.626Z,60
2017-10-14T07:48:20.269Z,60
2017-10-14T07:49:20.265Z,60
2017-10-14T07:50:20.264Z,60
2017-10-14T07:51:20.563Z,60
2017-10-14T07:52:20.374Z,60
2017-10-14T07:53:20.215Z,60
2017-10-14T07:54:20.188Z,65
2017-10-14T07:55:20.515Z,65
2017-10-14T07:56:20.508Z,65
2017-10-14T07:57:20.490Z,65
2017-10-14T07:58:20.830Z,65
2017-10-14T07:59:20.140Z,65
2017-10-14T08:00:20.799Z,80
2017-10-14T08:01:20.441Z,190
2017-10-14T08:02:19.813Z,215
2017-10-14T08:03:20.082Z,265
2017-10-14T08:04:20.077Z,160
2017-10-14T08:05:19.736Z,100
2017-10-14T08:06:20.722Z,80
2017-10-14T08:07:20.372Z,75
2017-10-14T08:08:20.029Z,70
2017-10-14T08:09:20.346Z,70
2017-10-14T08:10:20.001Z,105
2017-10-14T08:11:20.018Z,75
2017-10-14T08:12:19.975Z,70
2017-10-14T08:13:19.292Z,75
2017-10-14T08:14:19.951Z,90
2017-10-14T08:15:20.093Z,130
2017-10-14T08:16:19.591Z,115
2017-10-14T08:17:19.914Z,90
2017-10-14T08:18:20.237Z,75
2017-10-14T08:19:20.225Z,95
2017-10-14T08:20:19.873Z,105
2017-10-14T08:21:19.200Z,110
2017-10-14T08:22:20.192Z,75
2017-10-14T08:23:19.848Z,85
2017-10-14T08:24:19.832Z,75
2017-10-14T08:25:19.691Z,75
2017-10-14T08:26:19.815Z,85
2017-10-14T08:27:19.466Z,160
2017-10-14T08:28:20.120Z,75
2017-10-14T08:29:19.776Z,75
2017-10-14T08:30:19.769Z,75
2017-10-14T08:31:20.088Z,75
2017-10-14T08:32:19.805Z,75
2017-10-14T08:33:19.734Z,75
2017-10-14T08:34:19.717Z,75
2017-10-14T08:35:20.041Z,75
2017-10-14T08:36:19.697Z,75
2017-10-14T08:37:19.392Z,75
2017-10-14T08:38:19.996Z,75
2017-10-14T08:39:19.657Z,75
2017-10-14T08:40:19.652Z,75
2017-10-14T08:41:19.638Z,75
2017-10-14T08:42:20.348Z,75
2017-10-14T08:43:19.619Z,75
2017-10-14T08:44:20.287Z,75
2017-10-14T08:45:19.927Z,75
2017-10-14T08:46:20.282Z,75
2017-10-14T08:47:19.895Z,80
2017-10-14T08:48:19.556Z,105
2017-10-14T08:49:19.214Z,100
2017-10-14T08:50:20.198Z,80
2017-10-14T08:51:19.856Z,80
2017-10-14T08:52:19.511Z,85
2017-10-14T08:53:19.162Z,80
2017-10-14T08:54:19.168Z,80
2017-10-14T08:55:19.482Z,80
2017-10-14T08:56:19.470Z,80
2017-10-14T08:57:19.119Z,80
2017-10-14T08:58:20.114Z,80
2017-10-14T08:59:19.430Z,80
2017-10-14T09:00:20.103Z,80
2017-10-14T09:01:19.743Z,80
2017-10-14T09:02:19.392Z,80
2017-10-14T09:03:19.379Z,80
2017-10-14T09:04:19.370Z,80
2017-10-14T09:05:19.692Z,85
2017-10-14T09:06:18.691Z,80
2017-10-14T09:07:19.688Z,80
2017-10-14T09:08:19.332Z,85
2017-10-14T09:09:19.313Z,85
2017-10-14T09:10:19.309Z,85
2017-10-14T09:11:19.292Z,85
2017-10-14T09:12:19.282Z,85
2017-10-14T09:13:19.274Z,85
2017-10-14T09:14:19.254Z,85
2017-10-14T09:15:19.248Z,85
2017-10-14T09:16:18.569Z,85
2017-10-14T09:17:19.555Z,85
2017-10-14T09:18:19.225Z,85
2017-10-14T09:19:19.215Z,85
2017-10-14T09:20:19.530Z,90
2017-10-14T09:21:19.520Z,105
2017-10-14T09:22:19.510Z,90
2017-10-14T09:23:19.163Z,145
2017-10-14T09:24:19.188Z,195
2017-10-14T09:25:19.488Z,155
2017-10-14T09:26:19.137Z,150
2017-10-14T09:27:19.453Z,90
2017-10-14T09:28:19.442Z,110
2017-10-14T09:29:18.433Z,215
2017-10-14T09:30:19.447Z,205
2017-10-14T09:31:19.408Z,105
2017-10-14T09:32:19.412Z,90
2017-10-14T09:33:18.731Z,90
2017-10-14T09:34:19.059Z,90
2017-10-14T09:35:19.034Z,100
2017-10-14T09:36:19.030Z,95
2017-10-14T09:37:19.020Z,95
2017-10-14T09:38:19.009Z,90
2017-10-14T09:39:18.660Z,95
2017-10-14T09:40:19.010Z,100
2017-10-14T09:41:18.989Z,95
2017-10-14T09:42:18.647Z,90
2017-10-14T09:43:18.970Z,90
2017-10-14T09:44:19.295Z,90
2017-10-14T09:45:18.931Z,90
2017-10-14T09:46:18.941Z,90
2017-10-14T09:47:19.260Z,105
2017-10-14T09:48:18.906Z,95
2017-10-14T09:49:18.551Z,90
2017-10-14T09:50:19.220Z,90
2017-10-14T09:51:18.537Z,95
2017-10-14T09:52:19.539Z,105
2017-10-14T09:53:18.519Z,110
2017-10-14T09:54:18.850Z,95
2017-10-14T09:55:19.169Z,95
2017-10-14T09:56:18.494Z,95
2017-10-14T09:57:18.470Z,120
2017-10-14T09:58:19.170Z,95
2017-10-14T09:59:18.475Z,95
2017-10-14T10:00:19.132Z,95
2017-10-14T10:01:19.129Z,100
2017-10-14T10:02:18.753Z,100
2017-10-14T10:03:18.743Z,100
2017-10-14T10:04:18.405Z,105
2017-10-14T10:05:19.052Z,100
2017-10-14T10:06:19.053Z,105
2017-10-14T10:07:18.700Z,105
2017-10-14T10:08:18.694Z,105
2017-10-14T10:09:19.015Z,105
2017-10-14T10:10:18.713Z,105
2017-10-14T10:11:18.661Z,110
2017-10-14T10:12:18.996Z,190
2017-10-14T10:13:18.312Z,120
2017-10-14T10:14:19.346Z,115
2017-10-14T10:15:18.617Z,105
2017-10-14T10:16:18.616Z,110
2017-10-14T10:17:18.608Z,130
2017-10-14T10:18:18.588Z,110
2017-10-14T10:19:19.254Z,110
2017-10-14T10:20:17.904Z,110
2017-10-14T10:21:18.570Z,120
2017-10-14T10:22:19.252Z,135
2017-10-14T10:23:18.541Z,115
2017-10-14T10:24:18.198Z,115
2017-10-14T10:25:18.734Z,130
2017-10-14T10:26:18.849Z,130
2017-10-14T10:27:19.187Z,120
2017-10-14T10:28:18.497Z,130
2017-10-14T10:29:18.504Z,160
2017-10-14T10:30:18.826Z,165
2017-10-14T10:31:18.147Z,380
2017-10-14T10:32:18.455Z,130
2017-10-14T10:33:18.443Z,175
2017-10-14T10:34:18.779Z,145
2017-10-14T10:35:18.091Z,115
2017-10-14T10:36:19.082Z,130
2017-10-14T10:37:18.739Z,120
2017-10-14T10:38:18.066Z,125
2017-10-14T10:39:18.391Z,125
2017-10-14T10:40:19.076Z,125
2017-10-14T10:41:18.377Z,125
2017-10-14T10:42:18.686Z,150
2017-10-14T10:43:19.019Z,130
2017-10-14T10:44:18.337Z,175
2017-10-14T10:45:18.327Z,120
2017-10-14T10:46:18.327Z,120
2017-10-14T10:47:18.987Z,145
2017-10-14T10:48:17.976Z,180
2017-10-14T10:49:18.630Z,145
2017-10-14T10:50:18.634Z,195
2017-10-14T10:51:17.949Z,265
2017-10-14T10:52:18.602Z,445
2017-10-14T10:53:18.936Z,420
2017-10-14T10:54:17.977Z,295
2017-10-14T10:55:18.241Z,320
2017-10-14T10:56:18.235Z,165
2017-10-14T10:57:18.229Z,125
2017-10-14T10:58:17.564Z,215
2017-10-14T10:59:18.553Z,145
2017-10-14T11:00:18.900Z,150
2017-10-14T11:01:17.527Z,135
2017-10-14T11:02:18.520Z,130
2017-10-14T11:03:18.842Z,130
2017-10-14T11:04:18.198Z,130
2017-10-14T11:05:18.491Z,130
2017-10-14T11:06:18.526Z,165
2017-10-14T11:07:18.186Z,145
2017-10-14T11:08:18.829Z,205
2017-10-14T11:09:18.519Z,145
2017-10-14T11:10:18.191Z,140
2017-10-14T11:11:18.143Z,215
2017-10-14T11:12:18.122Z,195
2017-10-14T11:13:18.503Z,140
2017-10-14T11:14:18.458Z,135
2017-10-14T11:15:18.487Z,150
2017-10-14T11:16:18.807Z,130
2017-10-14T11:17:17.778Z,185
2017-10-14T11:18:18.068Z,270
2017-10-14T11:19:18.429Z,380
2017-10-14T11:20:17.710Z,170
2017-10-14T11:21:18.736Z,175
2017-10-14T11:22:18.054Z,155
2017-10-14T11:23:18.345Z,255
2017-10-14T11:24:18.389Z,325
2017-10-14T11:25:17.687Z,175
2017-10-14T11:26:18.325Z,205
2017-10-14T11:27:17.979Z,290
2017-10-14T11:28:17.973Z,210
2017-10-14T11:29:18.040Z,530
2017-10-14T11:30:18.710Z,380
2017-10-14T11:31:18.375Z,575
2017-10-14T11:32:17.998Z,380
2017-10-14T11:33:18.027Z,285
2017-10-14T11:34:18.000Z,420
2017-10-14T11:35:17.596Z,370
2017-10-14T11:36:18.682Z,340
2017-10-14T11:37:17.986Z,315
2017-10-14T11:38:17.619Z,405
2017-10-14T11:39:18.275Z,360
2017-10-14T11:40:17.990Z,300
2017-10-14T11:41:17.978Z,260
2017-10-14T11:42:18.267Z,245
2017-10-14T11:43:18.267Z,265
2017-10-14T11:44:17.579Z,235
2017-10-14T11:45:18.263Z,290
2017-10-14T11:46:18.276Z,370
2017-10-14T11:47:17.581Z,445
2017-10-14T11:48:18.589Z,520
2017-10-14T11:49:18.290Z,400
2017-10-14T11:50:18.016Z,560
2017-10-14T11:51:18.595Z,540
2017-10-14T11:52:17.572Z,535
2017-10-14T11:53:18.152Z,530
2017-10-14T11:54:17.860Z,740
2017-10-14T11:55:18.230Z,685
2017-10-14T11:56:17.454Z,615
2017-10-14T11:57:18.456Z,515
2017-10-14T11:58:18.211Z,820
2017-10-14T11:59:18.110Z,960
2017-10-14T12:00:18.174Z,1130
2017-10-14T12:01:18.436Z,1140
2017-10-14T12:02:18.099Z,1130
2017-10-14T12:03:17.771Z,1135
2017-10-14T12:04:18.097Z,1135
2017-10-14T12:05:18.189Z,1135
2017-10-14T12:06:18.114Z,1130
2017-10-14T12:07:17.413Z,1115
2017-10-14T12:08:17.758Z,1115
2017-10-14T12:09:17.807Z,1125
2017-10-14T12:10:17.496Z,1130
2017-10-14T12:11:18.453Z,1145
2017-10-14T12:12:17.504Z,1150
2017-10-14T12:13:17.458Z,1160
2017-10-14T12:14:17.486Z,1190
2017-10-14T12:15:17.510Z,1185
2017-10-14T12:16:18.149Z,1180
2017-10-14T12:17:18.146Z,1175
2017-10-14T12:18:18.122Z,1180
2017-10-14T12:19:17.776Z,1165
2017-10-14T12:20:18.111Z,1155
2017-10-14T12:21:17.777Z,1135
2017-10-14T12:22:17.780Z,1135
2017-10-14T12:23:18.105Z,1135
2017-10-14T12:24:17.407Z,1115
2017-10-14T12:25:18.065Z,1110
2017-10-14T12:26:17.843Z,1150
2017-10-14T12:27:18.111Z,1160
2017-10-14T12:28:17.759Z,1180
2017-10-14T12:29:18.072Z,1185
2017-10-14T12:30:17.413Z,1135
2017-10-14T12:31:17.465Z,1115
2017-10-14T12:32:17.745Z,1090
2017-10-14T12:33:18.086Z,1065
2017-10-14T12:34:18.086Z,1090
2017-10-14T12:35:17.418Z,1090
2017-10-14T12:36:18.101Z,1120
2017-10-14T12:37:18.091Z,1145
2017-10-14T12:38:18.140Z,1155
2017-10-14T12:39:18.428Z,1145
2017-10-14T12:40:17.435Z,1120
2017-10-14T12:41:17.772Z,1095
2017-10-14T12:42:17.764Z,1085
2017-10-14T12:43:18.438Z,1140
2017-10-14T12:44:17.438Z,1190
2017-10-14T12:45:17.440Z,1130
2017-10-14T12:46:17.447Z,1140
2017-10-14T12:47:17.784Z,1140
2017-10-14T12:48:17.785Z,1115
2017-10-14T12:49:18.462Z,1100
2017-10-14T12:50:18.477Z,1085
2017-10-14T12:51:17.856Z,1060
2017-10-14T12:52:17.464Z,1130
2017-10-14T12:53:17.477Z,1110
2017-10-14T12:54:17.797Z,1105
2017-10-14T12:55:18.142Z,1085
2017-10-14T12:56:17.809Z,1055
2017-10-14T12:57:18.156Z,1030
2017-10-14T12:58:18.163Z,1045
2017-10-14T12:59:17.151Z,1060
2017-10-14T13:00:17.834Z,1085
2017-10-14T13:01:18.157Z,1095
2017-10-14T13:02:17.831Z,1075
2017-10-14T13:03:18.162Z,1070
2017-10-14T13:04:17.509Z,1065
2017-10-14T13:05:18.181Z,1070
2017-10-14T13:06:17.514Z,1015
2017-10-14T13:07:17.836Z,980
2017-10-14T13:08:18.190Z,1000
2017-10-14T13:09:17.516Z,1005
2017-10-14T13:10:18.194Z,1020
2017-10-14T13:11:17.873Z,1040
2017-10-14T13:12:17.545Z,1050
2017-10-14T13:13:17.867Z,1040
2017-10-14T13:14:17.879Z,1010
2017-10-14T13:15:18.221Z,1030
2017-10-14T13:16:18.274Z,1030
2017-10-14T13:17:18.562Z,1040
2017-10-14T13:18:17.544Z,1045
2017-10-14T13:19:18.221Z,1025
2017-10-14T13:20:17.881Z,1010
2017-10-14T13:21:18.271Z,1005
2017-10-14T13:22:18.225Z,995
2017-10-14T13:23:17.900Z,980
2017-10-14T13:24:18.240Z,965
2017-10-14T13:25:17.572Z,935
2017-10-14T13:26:18.254Z,955
2017-10-14T13:27:17.591Z,985
2017-10-14T13:28:17.905Z,940
2017-10-14T13:29:17.923Z,925
2017-10-14T13:30:17.236Z,920
2017-10-14T13:31:17.957Z,900
2017-10-14T13:32:17.930Z,890
2017-10-14T13:33:18.593Z,880
2017-10-14T13:34:17.589Z,865
2017-10-14T13:35:17.938Z,870
2017-10-14T13:36:17.978Z,870
2017-10-14T13:37:17.923Z,825
2017-10-14T13:38:17.921Z,755
2017-10-14T13:39:18.604Z,740
2017-10-14T13:40:17.925Z,770
2017-10-14T13:41:18.266Z,785
2017-10-14T13:42:17.928Z,775
2017-10-14T13:43:17.268Z,750
2017-10-14T13:44:17.602Z,740
2017-10-14T13:45:17.266Z,730
2017-10-14T13:46:17.956Z,740
2017-10-14T13:47:17.614Z,755
2017-10-14T13:48:18.620Z,780
2017-10-14T13:49:18.287Z,765
2017-10-14T13:50:17.947Z,740
2017-10-14T13:51:17.621Z,720
2017-10-14T13:52:17.947Z,720
2017-10-14T13:53:18.316Z,705
2017-10-14T13:54:17.623Z,685
2017-10-14T13:55:17.292Z,665
2017-10-14T13:56:18.627Z,675
2017-10-14T13:57:17.965Z,675
2017-10-14T13:58:17.966Z,690
2017-10-14T13:59:18.310Z,685
2017-10-14T14:00:17.960Z,670
2017-10-14T14:01:18.012Z,685
2017-10-14T14:02:17.972Z,715
2017-10-14T14:03:18.642Z,735
2017-10-14T14:04:17.633Z,700
2017-10-14T14:05:18.308Z,655
2017-10-14T14:06:18.311Z,750
2017-10-14T14:07:18.646Z,745
2017-10-14T14:08:17.982Z,610
2017-10-14T14:09:17.988Z,640
2017-10-14T14:10:17.649Z,540
2017-10-14T14:11:18.651Z,695
2017-10-14T14:12:17.991Z,690
2017-10-14T14:13:17.996Z,685
2017-10-14T14:14:17.988Z,720
2017-10-14T14:15:18.323Z,695